Airfield :
LOGIN :

Register | Disclaimer

   EN    FR    IT 

 










Legend :    VFR   Marginal VFR   IFR   Intensive IFR   Very Intensive IFR
Visi :
Ceiling :
>= 8 km
>= 3000ft
5 to 8 km
1000 to 3000 ft
1500m to 5 km
500 to 1000 ft
800 to 1500m
200 to 500 ft
< 800m
< 200 ft
Symbols :   Thunderstorms  Fog  Heavy snow  Heavy precipitations  Wind > 20 kt
SIGMETs :     Misc.  Thunderstorms  Icing  Turbulence  Mountain Waves  Volcanic Ashes






- Airport Elevation : 1090 ft
- IATA code : CFE


LFLC - Clermont-Ferrand Auvergne

CURRENT METAR :
  • 150600Z AUTO 19006KT 9999 -RA BKN060 OVC074 12/11 Q1009 TEMPO 29015G30KT 3000 RA BKN009 BKN030TCU

EXPIRED METARs :
  • 150530Z AUTO 20003KT 130V290 9999 FEW035 OVC062 12/11 Q1009 TEMPO 29015G30KT 3000 RA BKN009 BKN030TCU
  • 150500Z AUTO 12004KT 100V210 9999 FEW033 BKN070 BKN100 12/11 Q1010 TEMPO 3000 RA BKN009 BKN030TCU
  • 150430Z AUTO 14004KT 9999 FEW011 BKN072 BKN094 12/11 Q1009 TEMPO 3000 RA BKN009 BKN030TCU
  • 150400Z AUTO 20005KT 9999 BKN013 BKN072 OVC150 12/11 Q1009 TEMPO 3000 RA BKN009 BKN030TCU
  • 150330Z AUTO 21004KT 170V240 9999 BKN014 BKN054 BKN078 12/11 Q1009 TEMPO 3000 RA BKN009 BKN030TCU

TAF TAF LFLC
Valid from the 15 at 03:00 until the 16 at 03:00 UTC


150200Z 1503/1603 18008KT 9999 FEW010 BKN040
TEMPO 1503/1512 3000 RA BKN009 BKN030TCU
PROB40
TEMPO 1507/1509 29015G30KT
PROB40
TEMPO 1512/1517 27012KT -SHRA SCT045TCU
ATIS : +33 4 73 62 74 38



MET'MAP, your aeronautical weather chart ! - Copyright ORBIFLY December 2007 - Disclaimer

ORBIFLY MET'MAP TEAM :

Programming & Development : Alexandra Zaïnal
Concept & Development : Baudouin d'Aumeries
Co-Development & Prog : Marc-Olivier Méhu
Technical & hardware support : Manuel Goepfert

Contact : metmap@orbifly.com




SOURCES & CREDITS :

   NOAA